createdAt,value
2019-04-21T00:01:42.971Z,91.70
2019-04-21T00:04:40.798Z,91.60
2019-04-21T00:07:33.145Z,89.60
2019-04-21T00:10:23.039Z,88.30
2019-04-21T00:13:03.674Z,86.10
2019-04-21T00:15:40.739Z,91.10
2019-04-21T00:18:21.690Z,91.60
2019-04-21T00:21:14.812Z,90.90
2019-04-21T00:24:16.487Z,90.80
2019-04-21T00:27:06.960Z,89.20
2019-04-21T00:29:51.893Z,89.80
2019-04-21T00:32:35.488Z,89.40
2019-04-21T00:35:16.952Z,92.10
2019-04-21T00:38:22.757Z,92.30
2019-04-21T00:41:08.777Z,91.20
2019-04-21T00:43:44.746Z,92.80
2019-04-21T00:46:35.157Z,92.40
2019-04-21T00:49:23.253Z,93.70
2019-04-21T00:52:35.327Z,94.90
2019-04-21T00:55:22.581Z,93.70
2019-04-21T01:00:46.196Z,96.20
2019-04-21T01:03:32.340Z,94.90
2019-04-21T01:06:23.052Z,96.70
2019-04-21T01:09:06.338Z,97.40
2019-04-21T01:11:49.300Z,97.10
2019-04-21T01:14:40.712Z,97.30
2019-04-21T01:17:27.726Z,97.20
2019-04-21T01:20:07.920Z,97.30
2019-04-21T01:22:38.777Z,96.90
2019-04-21T01:25:34.476Z,97.00
2019-04-21T01:28:29.295Z,97.90
2019-04-21T01:31:17.392Z,97.50
2019-04-21T01:34:10.123Z,97.70
2019-04-21T01:36:52.929Z,98.30
2019-04-21T01:39:42.806Z,97.20
2019-04-21T01:42:25.616Z,97.60
2019-04-21T01:45:12.742Z,98.20
2019-04-21T01:47:59.398Z,98.60
2019-04-21T01:50:47.234Z,98.20
2019-04-21T01:53:42.226Z,98.30
2019-04-21T01:56:30.594Z,99.20
2019-04-21T01:59:03.478Z,99.70
2019-04-21T02:02:08.073Z,99.30
2019-04-21T02:04:57.581Z,99.90
2019-04-21T02:07:40.665Z,99.90
2019-04-21T02:10:36.560Z,99.90
2019-04-21T02:13:12.093Z,99.90
2019-04-21T02:18:52.949Z,99.90
2019-04-21T02:21:27.281Z,99.90
2019-04-21T02:24:31.644Z,99.90
2019-04-21T02:27:15.643Z,99.90
2019-04-21T02:30:04.556Z,99.90
2019-04-21T02:36:00.557Z,99.90
2019-04-21T02:38:36.306Z,99.90
2019-04-21T02:41:18.357Z,99.90
2019-04-21T02:46:54.769Z,99.90
2019-04-21T02:50:00.249Z,99.90
2019-04-21T02:52:31.641Z,99.90
2019-04-21T02:58:06.193Z,99.90
2019-04-21T03:01:14.414Z,99.90
2019-04-21T03:07:07.059Z,99.90
2019-04-21T03:12:28.956Z,99.90
2019-04-21T03:15:21.325Z,99.90
2019-04-21T03:18:08.388Z,99.90
2019-04-21T03:21:07.188Z,99.90
2019-04-21T03:23:56.237Z,99.90
2019-04-21T03:29:26.472Z,99.90
2019-04-21T03:35:19.406Z,99.90
2019-04-21T03:37:53.019Z,99.90
2019-04-21T03:40:18.747Z,99.90
2019-04-21T03:45:49.134Z,99.90
2019-04-21T03:48:47.169Z,99.90
2019-04-21T03:51:27.651Z,99.90
2019-04-21T03:54:22.289Z,99.90
2019-04-21T03:59:56.235Z,99.90
2019-04-21T04:03:10.754Z,99.90
2019-04-21T04:06:13.741Z,99.90
2019-04-21T04:17:11.702Z,99.90
2019-04-21T04:25:43.025Z,99.90
2019-04-21T04:28:18.796Z,99.90
2019-04-21T04:31:09.959Z,99.90
2019-04-21T04:33:58.156Z,99.90
2019-04-21T04:39:43.078Z,99.90
2019-04-21T04:42:26.712Z,99.90
2019-04-21T04:45:28.283Z,99.90
2019-04-21T04:47:51.287Z,99.90
2019-04-21T04:56:12.805Z,99.90
2019-04-21T05:01:57.559Z,99.90
2019-04-21T05:04:37.455Z,99.90
2019-04-21T05:10:03.957Z,99.90
2019-04-21T05:12:51.267Z,99.90
2019-04-21T05:15:37.867Z,99.90
2019-04-21T05:18:35.168Z,99.90
2019-04-21T05:21:25.021Z,99.90
2019-04-21T05:23:54.022Z,99.90
2019-04-21T05:26:39.020Z,99.90
2019-04-21T05:29:24.552Z,99.90
2019-04-21T05:32:26.492Z,99.90
2019-04-21T05:35:14.371Z,99.90
2019-04-21T05:38:00.095Z,99.90
2019-04-21T05:40:43.753Z,99.90
2019-04-21T05:43:39.112Z,99.90
2019-04-21T05:46:32.587Z,99.90
2019-04-21T05:49:33.751Z,99.90
2019-04-21T05:52:19.651Z,99.90
2019-04-21T05:55:10.990Z,99.90
2019-04-21T05:57:59.666Z,99.90
2019-04-21T06:01:06.451Z,99.90
2019-04-21T06:03:44.787Z,99.90
2019-04-21T06:06:34.094Z,99.90
2019-04-21T06:09:14.574Z,99.90
2019-04-21T06:12:03.424Z,99.90
2019-04-21T06:20:31.821Z,99.90
2019-04-21T06:23:13.550Z,99.90
2019-04-21T06:28:50.410Z,99.90
2019-04-21T06:34:29.672Z,99.90
2019-04-21T06:37:32.137Z,99.90
2019-04-21T06:40:07.642Z,97.20
2019-04-21T06:42:51.378Z,96.20
2019-04-21T06:45:36.532Z,93.00
2019-04-21T06:48:25.883Z,90.60
2019-04-21T06:51:12.574Z,90.40
2019-04-21T06:53:59.250Z,82.70
2019-04-21T06:56:46.461Z,78.80
2019-04-21T06:59:30.077Z,74.90
2019-04-21T07:02:33.364Z,70.00
2019-04-21T07:08:05.192Z,73.90
2019-04-21T07:10:31.956Z,69.20
2019-04-21T07:13:22.337Z,67.40
2019-04-21T07:16:12.208Z,63.80
2019-04-21T07:19:06.535Z,64.20
2019-04-21T07:21:45.478Z,64.70
2019-04-21T07:24:33.360Z,62.00
2019-04-21T07:27:26.986Z,58.80
2019-04-21T07:30:05.255Z,57.40
2019-04-21T07:32:56.544Z,55.30
2019-04-21T07:35:37.476Z,54.20
2019-04-21T07:38:27.453Z,54.30
2019-04-21T07:41:02.608Z,51.00
2019-04-21T07:43:55.365Z,50.20
2019-04-21T07:46:44.075Z,50.90
2019-04-21T07:49:39.958Z,49.60
2019-04-21T07:52:28.575Z,48.90
2019-04-21T07:58:02.606Z,48.20
2019-04-21T08:00:52.975Z,49.00
2019-04-21T08:03:33.659Z,47.90
2019-04-21T08:06:28.252Z,46.40
2019-04-21T08:09:09.108Z,46.20
2019-04-21T08:11:51.759Z,47.10
2019-04-21T08:14:48.255Z,46.40
2019-04-21T08:17:30.690Z,46.70
2019-04-21T08:20:20.574Z,46.50
2019-04-21T08:23:04.723Z,46.10
2019-04-21T08:25:58.938Z,45.60
2019-04-21T08:28:40.618Z,44.50
2019-04-21T08:31:32.381Z,44.00
2019-04-21T08:34:14.099Z,44.00
2019-04-21T08:36:57.525Z,43.80
2019-04-21T08:39:59.374Z,44.30
2019-04-21T08:42:30.517Z,42.90
2019-04-21T08:45:22.591Z,42.30
2019-04-21T08:48:12.082Z,43.20
2019-04-21T08:51:06.004Z,42.30
2019-04-21T08:53:50.633Z,41.70
2019-04-21T08:56:46.760Z,39.90
2019-04-21T08:59:43.493Z,41.40
2019-04-21T09:02:35.106Z,39.80
2019-04-21T09:05:17.759Z,38.80
2019-04-21T09:08:05.331Z,40.50
2019-04-21T09:10:52.874Z,39.70
2019-04-21T09:13:37.129Z,39.00
2019-04-21T09:16:20.825Z,38.20
2019-04-21T09:19:11.452Z,39.50
2019-04-21T09:22:00.478Z,39.20
2019-04-21T09:24:45.717Z,41.00
2019-04-21T09:27:33.627Z,40.30
2019-04-21T09:30:06.550Z,39.40
2019-04-21T09:32:54.511Z,37.70
2019-04-21T09:35:40.591Z,38.30
2019-04-21T09:38:33.942Z,37.30
2019-04-21T09:41:17.531Z,37.10
2019-04-21T09:44:01.636Z,36.20
2019-04-21T09:46:50.779Z,35.20
2019-04-21T09:49:37.193Z,35.20
2019-04-21T09:52:27.027Z,36.40
2019-04-21T09:55:14.290Z,35.20
2019-04-21T09:58:07.490Z,34.50
2019-04-21T10:00:56.842Z,32.70
2019-04-21T10:03:38.286Z,32.20
2019-04-21T10:06:19.575Z,34.40
2019-04-21T10:09:10.249Z,34.00
2019-04-21T10:11:54.914Z,34.30
2019-04-21T10:14:40.959Z,34.30
2019-04-21T10:17:41.676Z,33.10
2019-04-21T10:20:26.986Z,34.30
2019-04-21T10:23:13.418Z,33.60
2019-04-21T10:26:00.869Z,32.20
2019-04-21T10:28:46.887Z,32.00
2019-04-21T10:31:32.475Z,32.90
2019-04-21T10:34:19.041Z,32.60
2019-04-21T10:37:04.938Z,32.00
2019-04-21T10:39:51.458Z,32.50
2019-04-21T10:42:37.342Z,34.20
2019-04-21T10:45:23.067Z,34.00
2019-04-21T10:48:08.406Z,35.70
2019-04-21T10:50:54.810Z,32.90
2019-04-21T10:53:42.774Z,34.00
2019-04-21T10:56:33.209Z,34.80
2019-04-21T10:59:16.152Z,34.90
2019-04-21T11:02:03.558Z,34.80
2019-04-21T11:04:49.026Z,34.90
2019-04-21T11:07:57.601Z,33.40
2019-04-21T11:10:32.083Z,33.20
2019-04-21T11:13:18.761Z,32.00
2019-04-21T11:16:05.392Z,32.80
2019-04-21T11:18:51.639Z,33.80
2019-04-21T11:21:36.755Z,35.10
2019-04-21T11:24:23.038Z,33.50
2019-04-21T11:27:08.866Z,33.90
2019-04-21T11:29:53.915Z,34.90
2019-04-21T11:32:48.229Z,33.60
2019-04-21T11:35:35.213Z,34.00
2019-04-21T11:38:30.441Z,32.80
2019-04-21T11:41:16.053Z,32.30
2019-04-21T11:44:01.437Z,32.50
2019-04-21T11:46:46.795Z,33.10
2019-04-21T11:49:32.595Z,32.40
2019-04-21T11:52:20.789Z,32.10
2019-04-21T11:55:07.302Z,31.80
2019-04-21T11:57:53.493Z,32.10
2019-04-21T12:00:39.922Z,31.10
2019-04-21T12:03:25.678Z,30.90
2019-04-21T12:06:11.174Z,31.30
2019-04-21T12:08:59.079Z,31.80
2019-04-21T12:11:43.373Z,31.40
2019-04-21T12:14:28.263Z,31.20
2019-04-21T12:17:14.228Z,29.60
2019-04-21T12:20:01.046Z,30.00
2019-04-21T12:22:47.328Z,30.00
2019-04-21T12:25:34.361Z,31.60
2019-04-21T12:28:19.778Z,30.60
2019-04-21T12:31:07.907Z,30.60
2019-04-21T12:33:58.184Z,30.30
2019-04-21T12:36:44.662Z,30.90
2019-04-21T12:39:30.517Z,29.60
2019-04-21T12:42:16.475Z,29.10
2019-04-21T12:45:03.471Z,28.50
2019-04-21T12:47:50.661Z,27.40
2019-04-21T12:50:37.641Z,27.80
2019-04-21T12:53:23.544Z,28.70
2019-04-21T12:56:09.480Z,29.10
2019-04-21T12:58:55.363Z,29.70
2019-04-21T13:01:41.164Z,29.50
2019-04-21T13:04:26.307Z,28.60
2019-04-21T13:07:13.160Z,27.20
2019-04-21T13:10:00.099Z,27.10
2019-04-21T13:12:45.891Z,27.50
2019-04-21T13:15:31.594Z,26.00
2019-04-21T13:18:16.690Z,23.10
2019-04-21T13:21:02.706Z,22.00
2019-04-21T13:23:49.176Z,20.60
2019-04-21T13:26:43.085Z,19.50
2019-04-21T13:29:23.852Z,19.10
2019-04-21T13:32:10.578Z,18.20
2019-04-21T13:34:57.052Z,17.50
2019-04-21T13:37:43.658Z,17.30
2019-04-21T13:40:54.437Z,17.30
2019-04-21T13:43:25.217Z,18.10
2019-04-21T13:46:11.978Z,17.70
2019-04-21T13:48:57.334Z,18.20
2019-04-21T13:51:43.831Z,18.10
2019-04-21T13:54:29.669Z,19.00
2019-04-21T13:57:16.548Z,19.60
2019-04-21T14:00:06.313Z,20.20
2019-04-21T14:02:52.526Z,21.40
2019-04-21T14:05:38.211Z,22.30
2019-04-21T14:08:25.158Z,22.10
2019-04-21T14:11:11.367Z,22.30
2019-04-21T14:13:56.840Z,23.60
2019-04-21T14:16:42.353Z,22.50
2019-04-21T14:19:27.798Z,22.90
2019-04-21T14:22:15.906Z,22.20
2019-04-21T14:25:01.795Z,23.60
2019-04-21T14:27:49.044Z,23.50
2019-04-21T14:30:34.632Z,23.80
2019-04-21T14:33:23.432Z,23.70
2019-04-21T14:36:08.632Z,24.20
2019-04-21T14:38:54.498Z,24.80
2019-04-21T14:41:40.294Z,24.70
2019-04-21T14:44:27.108Z,24.80
2019-04-21T14:47:20.865Z,26.20
2019-04-21T14:50:28.176Z,25.00
2019-04-21T14:53:16.058Z,24.90
2019-04-21T14:56:01.458Z,25.20
2019-04-21T14:58:46.871Z,24.80
2019-04-21T15:01:33.736Z,24.80
2019-04-21T15:04:20.584Z,23.80
2019-04-21T15:07:05.849Z,24.30
2019-04-21T15:10:02.550Z,26.00
2019-04-21T15:12:39.360Z,24.50
2019-04-21T15:15:25.918Z,25.90
2019-04-21T15:18:10.852Z,25.40
2019-04-21T15:20:57.366Z,24.70
2019-04-21T15:23:42.637Z,25.70
2019-04-21T15:26:28.433Z,26.30
2019-04-21T15:29:14.995Z,25.60
2019-04-21T15:32:00.926Z,26.20
2019-04-21T15:34:46.261Z,25.70
2019-04-21T15:37:31.624Z,24.80
2019-04-21T15:40:27.245Z,23.70
2019-04-21T15:43:04.403Z,23.70
2019-04-21T15:45:50.493Z,23.70
2019-04-21T15:48:37.040Z,22.20
2019-04-21T15:51:22.313Z,22.60
2019-04-21T15:54:08.736Z,22.70
2019-04-21T15:57:11.174Z,22.80
2019-04-21T15:59:58.741Z,23.90
2019-04-21T16:02:46.737Z,24.00
2019-04-21T16:05:32.966Z,24.20
2019-04-21T16:08:18.681Z,23.10
2019-04-21T16:11:07.461Z,24.00
2019-04-21T16:13:52.014Z,23.00
2019-04-21T16:16:37.250Z,23.60
2019-04-21T16:19:23.044Z,23.30
2019-04-21T16:22:08.615Z,22.70
2019-04-21T16:24:54.691Z,23.40
2019-04-21T16:27:39.694Z,23.10
2019-04-21T16:30:25.879Z,22.80
2019-04-21T16:33:12.193Z,22.80
2019-04-21T16:35:58.007Z,21.80
2019-04-21T16:38:43.794Z,21.80
2019-04-21T16:41:30.354Z,21.20
2019-04-21T16:44:16.841Z,21.40
2019-04-21T16:47:03.372Z,22.00
2019-04-21T16:49:49.738Z,22.10
2019-04-21T16:52:38.328Z,23.30
2019-04-21T16:55:26.710Z,23.70
2019-04-21T16:58:28.724Z,24.30
2019-04-21T17:01:17.011Z,24.40
2019-04-21T17:04:04.490Z,25.10
2019-04-21T17:06:51.180Z,26.60
2019-04-21T17:09:36.858Z,27.20
2019-04-21T17:12:22.776Z,28.10
2019-04-21T17:15:23.935Z,27.70
2019-04-21T17:18:13.480Z,29.20
2019-04-21T17:20:50.679Z,28.60
2019-04-21T17:23:31.499Z,29.50
2019-04-21T17:26:17.164Z,29.60
2019-04-21T17:29:04.852Z,28.80
2019-04-21T17:31:50.261Z,29.80
2019-04-21T17:34:37.099Z,29.60
2019-04-21T17:37:25.112Z,29.50
2019-04-21T17:40:09.495Z,29.90
2019-04-21T17:43:03.250Z,29.80
2019-04-21T17:45:41.397Z,31.50
2019-04-21T17:48:29.177Z,30.40
2019-04-21T17:51:17.347Z,30.40
2019-04-21T17:54:19.797Z,31.50
2019-04-21T17:57:24.442Z,31.70
2019-04-21T18:00:11.417Z,34.10
2019-04-21T18:02:53.305Z,33.20
2019-04-21T18:05:39.322Z,34.60
2019-04-21T18:08:32.567Z,33.80
2019-04-21T18:11:03.546Z,35.10
2019-04-21T18:13:41.841Z,33.30
2019-04-21T18:16:35.855Z,34.20
2019-04-21T18:19:15.073Z,35.30
2019-04-21T18:22:06.923Z,37.00
2019-04-21T18:25:03.069Z,36.90
2019-04-21T18:27:40.813Z,37.60
2019-04-21T18:30:52.410Z,39.30
2019-04-21T18:33:42.065Z,39.60
2019-04-21T18:36:39.809Z,39.60
2019-04-21T18:39:43.395Z,40.00
2019-04-21T18:42:31.684Z,38.90
2019-04-21T18:46:02.205Z,40.90
2019-04-21T18:48:28.667Z,40.80
2019-04-21T18:51:21.934Z,40.90
2019-04-21T18:54:32.086Z,41.20
2019-04-21T18:57:05.399Z,42.20
2019-04-21T18:59:45.174Z,41.50
2019-04-21T19:02:38.411Z,42.60
2019-04-21T19:05:21.192Z,44.30
2019-04-21T19:08:19.058Z,43.40
2019-04-21T19:11:23.770Z,43.80
2019-04-21T19:14:28.501Z,44.60
2019-04-21T19:17:29.099Z,44.40
2019-04-21T19:22:32.486Z,45.40
2019-04-21T19:25:31.481Z,47.00
2019-04-21T19:28:03.341Z,46.90
2019-04-21T19:31:00.885Z,47.90
2019-04-21T19:33:33.318Z,46.80
2019-04-21T19:36:08.507Z,46.70
2019-04-21T19:39:04.938Z,46.00
2019-04-21T19:41:52.122Z,46.70
2019-04-21T19:45:09.553Z,48.00
2019-04-21T19:47:56.172Z,46.70
2019-04-21T19:50:40.971Z,47.10
2019-04-21T19:53:24.269Z,47.20
2019-04-21T19:55:58.266Z,47.60
2019-04-21T19:58:47.244Z,48.50
2019-04-21T20:01:31.925Z,49.90
2019-04-21T20:04:17.108Z,50.20
2019-04-21T20:07:17.471Z,48.80
2019-04-21T20:10:14.284Z,51.10
2019-04-21T20:12:55.600Z,51.70
2019-04-21T20:15:44.735Z,51.60
2019-04-21T20:18:20.968Z,51.60
2019-04-21T20:20:58.366Z,51.90
2019-04-21T20:23:45.148Z,52.20
2019-04-21T20:26:39.090Z,52.80
2019-04-21T20:29:37.479Z,53.40
2019-04-21T20:32:38.264Z,52.80
2019-04-21T20:35:34.691Z,54.10
2019-04-21T20:37:52.535Z,53.90
2019-04-21T20:40:36.227Z,55.50
2019-04-21T20:43:38.179Z,55.40
2019-04-21T20:46:23.779Z,55.40
2019-04-21T20:48:59.986Z,56.70
2019-04-21T20:51:58.159Z,56.00
2019-04-21T20:54:37.137Z,56.80
2019-04-21T20:57:25.578Z,58.50
2019-04-21T21:00:13.657Z,58.10
2019-04-21T21:03:04.209Z,58.90
2019-04-21T21:05:42.441Z,61.40
2019-04-21T21:08:35.498Z,60.90
2019-04-21T21:11:21.525Z,64.30
2019-04-21T21:14:14.551Z,64.50
2019-04-21T21:16:57.903Z,65.50
2019-04-21T21:19:46.912Z,65.20
2019-04-21T21:22:28.995Z,66.30
2019-04-21T21:25:25.554Z,65.80
2019-04-21T21:27:57.949Z,65.90
2019-04-21T21:30:52.700Z,67.50
2019-04-21T21:33:50.816Z,66.80
2019-04-21T21:36:26.506Z,66.10
2019-04-21T21:39:15.919Z,66.80
2019-04-21T21:41:52.194Z,66.20
2019-04-21T21:44:35.821Z,66.90
2019-04-21T21:47:45.214Z,67.80
2019-04-21T21:50:23.295Z,71.50
2019-04-21T21:53:07.792Z,70.90
2019-04-21T21:55:46.930Z,68.00
2019-04-21T21:58:37.160Z,66.40
2019-04-21T22:01:21.828Z,65.50
2019-04-21T22:04:14.530Z,63.00
2019-04-21T22:06:58.465Z,61.20
2019-04-21T22:09:39.973Z,60.60
2019-04-21T22:12:26.105Z,60.60
2019-04-21T22:15:18.592Z,59.80
2019-04-21T22:18:16.810Z,57.50
2019-04-21T22:21:04.901Z,56.40
2019-04-21T22:23:44.869Z,56.30
2019-04-21T22:26:23.185Z,56.40
2019-04-21T22:29:08.095Z,53.60
2019-04-21T22:32:05.473Z,55.10
2019-04-21T22:34:48.677Z,53.10
2019-04-21T22:37:41.550Z,53.40
2019-04-21T22:40:23.798Z,53.60
2019-04-21T22:43:11.577Z,55.30
2019-04-21T22:45:47.712Z,53.40
2019-04-21T22:48:32.984Z,52.10
2019-04-21T22:51:25.393Z,51.40
2019-04-21T22:54:06.069Z,51.30
2019-04-21T22:57:02.599Z,51.10
2019-04-21T22:59:40.535Z,50.70
2019-04-21T23:02:29.569Z,51.60
2019-04-21T23:05:15.602Z,50.90
2019-04-21T23:08:03.308Z,50.20
2019-04-21T23:10:52.589Z,51.40
2019-04-21T23:13:36.267Z,51.40
2019-04-21T23:16:28.086Z,50.60
2019-04-21T23:19:23.683Z,51.00
2019-04-21T23:22:17.345Z,51.30
2019-04-21T23:25:03.444Z,52.10
2019-04-21T23:27:51.653Z,52.10
2019-04-21T23:30:47.468Z,52.00
2019-04-21T23:33:09.723Z,52.90
2019-04-21T23:35:59.098Z,54.10
2019-04-21T23:38:44.933Z,53.90
2019-04-21T23:41:36.183Z,53.80
2019-04-21T23:44:17.156Z,53.40
2019-04-21T23:47:06.565Z,54.50
2019-04-21T23:49:59.618Z,53.90
2019-04-21T23:52:37.387Z,54.80
2019-04-21T23:55:23.228Z,54.60
2019-04-21T23:58:16.389Z,54.40
